Terminal Aerodrome Forecast
Issued by NWS

Home | Current Version | Previous Version | Text Only | Print | Product List | Glossary On
Versions: 1 2 3 4 5 6 7 8 9 10 11 12 13 14 15 16 17 18
000
FTUS41 KBOX 171124
TAFACK
TAF
KACK 171124Z 1712/1812 31009KT P6SM SKC
     FM171800 30012KT P6SM FEW250
     FM180200 32008KT P6SM BKN120
     FM180900 00000KT P6SM OVC040=

USA.gov is the U.S. government's official web portal to all federal, state and local government web resources and services.